Time;durP1;ratioP1;P1;durP2;ratioP2;P2;SDS_P1;SDS_P2;PMS_P1;PMS_P2;Temp;Humidity;BMP_temperature;BMP_pressure;BME280_temperature;BME280_humidity;BME280_pressure;Samples;Min_cycle;Max_cycle;Signal;HPM_P1;HPM_P2
2021/10/15 00:01:11;;;;;;;0.80;0.75;;;;;;;4.58;83.88;93572.56;5111934;28;20498;-43
2021/10/15 00:03:37;;;;;;;0.50;0.50;;;;;;;4.52;83.82;93573.84;5111900;28;20537;-42
2021/10/15 00:06:02;;;;;;;2.58;1.00;;;;;;;4.47;83.21;93571.88;5111481;28;20030;-42
2021/10/15 00:08:27;;;;;;;1.17;0.85;;;;;;;4.47;83.39;93566.41;5111525;28;20043;-40
2021/10/15 00:10:53;;;;;;;0.50;0.50;;;;;;;4.51;84.02;93559.44;5111711;28;20024;-41
2021/10/15 00:13:18;;;;;;;0.40;0.40;;;;;;;4.48;84.09;93554.25;5111370;28;20475;-42
2021/10/15 00:15:44;;;;;;;0.82;0.60;;;;;;;4.57;84.35;93553.91;5111236;28;20092;-42
2021/10/15 00:18:09;;;;;;;0.63;0.63;;;;;;;4.59;84.04;93549.44;5111610;28;20030;-42
2021/10/15 00:20:35;;;;;;;0.65;0.60;;;;;;;4.56;84.04;93555.94;5111408;28;20522;-42
2021/10/15 00:23:00;;;;;;;1.52;1.10;;;;;;;4.48;84.06;93557.69;5099231;28;20498;-42
2021/10/15 00:25:26;;;;;;;0.45;0.40;;;;;;;4.48;83.87;93554.25;5090785;28;20541;-42
2021/10/15 00:27:51;;;;;;;0.40;0.40;;;;;;;4.50;83.57;93552.47;5090846;28;20080;-42
2021/10/15 00:30:17;;;;;;;0.50;0.50;;;;;;;4.49;83.44;93561.94;5090685;28;20031;-42
2021/10/15 00:32:42;;;;;;;0.40;0.40;;;;;;;4.43;83.68;93558.50;5091022;28;20035;-41
2021/10/15 00:35:08;;;;;;;0.32;0.32;;;;;;;4.44;82.96;93559.97;5090874;28;20476;-41
2021/10/15 00:37:33;;;;;;;1.10;0.80;;;;;;;4.47;83.75;93558.97;5090908;28;20016;-41
2021/10/15 00:39:59;;;;;;;0.70;0.70;;;;;;;4.41;83.52;93552.03;5090607;28;20093;-41
2021/10/15 00:42:25;;;;;;;0.20;0.20;;;;;;;4.45;84.00;93557.97;5090537;28;20024;-41
2021/10/15 00:44:50;;;;;;;1.45;0.80;;;;;;;4.46;83.92;93559.47;5091370;28;20035;-41
2021/10/15 00:47:16;;;;;;;0.35;0.35;;;;;;;4.33;83.50;93551.81;5110880;28;20043;-41
2021/10/15 00:49:41;;;;;;;0.20;0.20;;;;;;;4.32;83.26;93546.88;5111179;28;20015;-41
2021/10/15 00:52:10;;;;;;;0.40;0.40;;;;;;;4.34;83.87;93545.13;5110764;28;20511;-41
2021/10/15 00:54:35;;;;;;;0.65;0.40;;;;;;;4.33;83.74;93537.44;5110794;27;20019;-41
2021/10/15 00:57:01;;;;;;;0.60;0.60;;;;;;;4.34;83.91;93538.91;5110774;28;20165;-41
2021/10/15 00:59:27;;;;;;;0.68;0.47;;;;;;;4.29;83.68;93539.66;5110577;28;20030;-41
2021/10/15 01:01:52;;;;;;;0.95;0.55;;;;;;;4.18;83.63;93534.31;5109335;28;20035;-41
2021/10/15 01:04:18;;;;;;;0.30;0.30;;;;;;;4.20;83.82;93535.25;5110873;28;20525;-41
2021/10/15 01:06:44;;;;;;;0.65;0.30;;;;;;;4.22;84.09;93532.75;5110597;28;20110;-41
2021/10/15 01:09:09;;;;;;;1.17;0.80;;;;;;;4.25;84.75;93528.28;5110972;28;20074;-41
2021/10/15 01:11:35;;;;;;;1.50;1.10;;;;;;;4.24;84.69;93530.28;5101281;28;20028;-41
2021/10/15 01:14:02;;;;;;;1.00;0.55;;;;;;;4.31;84.50;93524.25;5090553;28;20417;-42
2021/10/15 01:16:30;;;;;;;18.23;5.43;;;;;;;4.30;84.45;93525.53;5090534;28;20020;-42
2021/10/15 01:18:57;;;;;;;10.27;5.38;;;;;;;4.37;84.84;93516.78;5090068;28;20107;-43
2021/10/15 01:21:24;;;;;;;19.08;8.73;;;;;;;4.43;84.94;93509.28;5090465;28;20025;-43
2021/10/15 01:23:49;;;;;;;18.58;8.43;;;;;;;4.45;84.48;93508.78;5089837;28;20020;-42
2021/10/15 01:26:15;;;;;;;5.47;3.58;;;;;;;4.38;84.24;93496.41;5089955;28;20097;-43
2021/10/15 01:28:40;;;;;;;5.72;3.20;;;;;;;4.40;84.08;93502.09;5090096;28;20156;-42
2021/10/15 01:31:06;;;;;;;7.07;4.40;;;;;;;4.38;83.77;93501.09;5094318;28;20023;-42
2021/10/15 01:33:32;;;;;;;2.72;1.40;;;;;;;4.39;83.91;93499.88;5090839;28;20053;-42
2021/10/15 01:35:58;;;;;;;1.50;1.10;;;;;;;4.41;83.76;93508.31;5090303;28;20098;-44
2021/10/15 01:38:24;;;;;;;8.75;4.88;;;;;;;4.47;84.00;93506.28;5099683;28;20042;-43
2021/10/15 01:40:49;;;;;;;4.82;3.45;;;;;;;4.44;83.95;93504.56;5110247;28;20024;-41
2021/10/15 01:43:23;;;;;;;3.50;2.45;;;;;;;4.39;83.71;93497.13;5110594;28;20026;-43
2021/10/15 01:45:49;;;;;;;1.73;1.27;;;;;;;4.31;83.88;93499.66;5110592;28;20027;-42
2021/10/15 01:48:15;;;;;;;2.80;1.27;;;;;;;4.33;84.13;93493.72;5110031;28;20083;-41
2021/10/15 01:50:41;;;;;;;3.88;2.60;;;;;;;4.23;83.89;93495.25;5110268;28;20068;-41
2021/10/15 01:53:07;;;;;;;1.88;1.00;;;;;;;4.12;84.13;93492.56;5110540;28;20024;-43
2021/10/15 01:55:32;;;;;;;2.45;1.08;;;;;;;4.02;84.28;93488.69;5110277;28;20404;-45
2021/10/15 01:57:58;;;;;;;3.50;2.25;;;;;;;4.03;84.88;93488.16;5110200;28;20054;-43
2021/10/15 02:00:23;;;;;;;4.38;2.58;;;;;;;4.05;85.70;93484.94;5110086;28;20023;-43
2021/10/15 02:02:49;;;;;;;3.47;2.17;;;;;;;4.14;86.03;93496.28;5110407;28;20019;-44
2021/10/15 02:05:16;;;;;;;3.67;2.75;;;;;;;4.20;85.70;93488.06;5110012;28;20023;-43
2021/10/15 02:07:43;;;;;;;2.65;1.77;;;;;;;4.18;84.70;93494.03;5110169;28;20027;-43
2021/10/15 02:10:09;;;;;;;6.72;4.13;;;;;;;4.23;84.29;93487.78;5110381;28;20024;-42
2021/10/15 02:12:35;;;;;;;2.50;1.77;;;;;;;4.21;84.39;93493.03;5109939;28;20107;-42
2021/10/15 02:15:01;;;;;;;5.63;3.67;;;;;;;4.24;84.53;93489.28;5111580;28;20035;-42
2021/10/15 02:17:26;;;;;;;4.70;2.70;;;;;;;4.20;84.61;93497.00;5113915;28;20034;-43
2021/10/15 02:19:52;;;;;;;1.92;1.38;;;;;;;4.24;84.98;93485.81;5113872;28;20019;-42
2021/10/15 02:22:17;;;;;;;1.55;1.27;;;;;;;4.18;84.06;93480.38;5107663;28;20485;-44
2021/10/15 02:24:42;;;;;;;5.57;2.35;;;;;;;4.19;84.36;93478.38;5093100;28;20488;-44
2021/10/15 02:27:08;;;;;;;3.28;1.75;;;;;;;4.11;84.48;93486.41;5093076;28;20028;-46
2021/10/15 02:29:33;;;;;;;1.65;1.33;;;;;;;4.06;84.18;93487.16;5093289;28;20020;-45
2021/10/15 02:31:59;;;;;;;3.38;2.88;;;;;;;4.10;84.30;93493.09;5093011;28;20047;-42
2021/10/15 02:34:24;;;;;;;1.92;1.40;;;;;;;4.05;84.40;93491.13;5093307;28;20020;-43
2021/10/15 02:36:50;;;;;;;1.58;1.27;;;;;;;4.10;84.71;93492.34;5093233;28;20020;-44
2021/10/15 02:39:15;;;;;;;2.65;1.70;;;;;;;4.11;84.48;93493.84;5093153;28;20016;-44
2021/10/15 02:41:41;;;;;;;2.42;1.25;;;;;;;4.18;85.05;93494.03;5092699;28;20444;-45
2021/10/15 02:44:08;;;;;;;0.73;0.73;;;;;;;4.21;85.09;93490.28;5091977;28;20081;-43
2021/10/15 02:46:34;;;;;;;0.82;0.77;;;;;;;4.22;85.03;93483.56;5107989;28;20022;-43
2021/10/15 02:49:00;;;;;;;1.58;1.30;;;;;;;4.21;84.46;93487.56;5112954;28;20051;-43
2021/10/15 02:51:26;;;;;;;1.10;0.80;;;;;;;4.24;83.94;93488.53;5112989;28;20474;-43
2021/10/15 02:53:51;;;;;;;0.90;0.75;;;;;;;4.33;84.52;93488.97;5112950;28;20031;-44
2021/10/15 02:56:17;;;;;;;0.82;0.70;;;;;;;4.20;85.09;93463.50;5113165;27;20031;-44
2021/10/15 02:58:42;;;;;;;2.88;1.55;;;;;;;4.37;84.46;93475.03;5113229;28;20024;-43
2021/10/15 03:01:08;;;;;;;1.92;1.42;;;;;;;4.42;84.22;93479.72;5112690;27;20084;-43
2021/10/15 03:03:33;;;;;;;1.98;1.00;;;;;;;4.31;83.57;93469.59;5107724;28;20020;-44
2021/10/15 03:05:59;;;;;;;0.93;0.80;;;;;;;4.43;83.54;93470.28;5092467;28;20016;-44
2021/10/15 03:08:25;;;;;;;0.57;0.57;;;;;;;4.37;83.89;93472.31;5092539;28;20063;-45
2021/10/15 03:10:50;;;;;;;0.50;0.50;;;;;;;4.38;83.78;93479.25;5092485;28;20378;-43
2021/10/15 03:13:15;;;;;;;0.50;0.50;;;;;;;4.26;83.55;93451.28;5092347;28;20028;-43
2021/10/15 03:15:41;;;;;;;0.80;0.45;;;;;;;4.38;83.35;93474.53;5092167;28;20031;-46
2021/10/15 03:18:06;;;;;;;0.30;0.30;;;;;;;4.36;82.92;93482.50;5092322;28;20081;-44
2021/10/15 03:20:32;;;;;;;0.75;0.75;;;;;;;4.32;83.38;93464.88;5092310;28;20440;-44
2021/10/15 03:22:57;;;;;;;0.50;0.35;;;;;;;4.33;83.46;93469.13;5091923;28;20463;-44
2021/10/15 03:25:23;;;;;;;0.30;0.30;;;;;;;4.33;84.43;93469.84;5091786;28;20394;-45
2021/10/15 03:27:48;;;;;;;0.50;0.50;;;;;;;4.36;84.66;93468.81;5092145;28;20028;-42
2021/10/15 03:30:14;;;;;;;0.73;0.55;;;;;;;4.43;84.44;93468.28;5092130;28;20581;-41
2021/10/15 03:32:39;;;;;;;1.52;1.15;;;;;;;4.42;84.58;93466.78;5092090;28;20024;-44
2021/10/15 03:35:05;;;;;;;0.50;0.47;;;;;;;4.38;84.22;93462.84;5091812;28;20035;-44
2021/10/15 03:37:31;;;;;;;0.60;0.60;;;;;;;4.40;83.64;93444.69;5092066;28;20024;-43
2021/10/15 03:39:56;;;;;;;0.60;0.60;;;;;;;4.40;83.95;93452.16;5091831;28;20421;-43
2021/10/15 03:42:21;;;;;;;0.70;0.70;;;;;;;4.46;83.81;93439.91;5091888;28;20459;-43
2021/10/15 03:44:47;;;;;;;0.35;0.30;;;;;;;4.49;83.74;93444.38;5092053;28;20031;-43
2021/10/15 03:47:12;;;;;;;0.45;0.45;;;;;;;4.48;84.12;93426.47;5111825;28;20136;-44
2021/10/15 03:49:38;;;;;;;1.38;0.82;;;;;;;4.62;83.79;93430.09;5111907;28;20024;-43
2021/10/15 03:52:04;;;;;;;5.90;2.63;;;;;;;4.71;84.24;93432.50;5112054;28;20020;-43
2021/10/15 03:54:30;;;;;;;3.30;1.60;;;;;;;4.75;83.47;93440.41;5111920;28;20043;-44
2021/10/15 03:56:55;;;;;;;1.35;1.20;;;;;;;4.73;83.57;93431.97;5112003;28;20016;-44
2021/10/15 03:59:20;;;;;;;1.45;1.23;;;;;;;4.52;83.41;93418.75;5111881;28;20055;-42
2021/10/15 04:01:46;;;;;;;4.60;3.22;;;;;;;4.65;83.47;93426.34;5111556;28;20456;-42
2021/10/15 04:04:11;;;;;;;1.00;0.98;;;;;;;4.63;82.95;93433.56;5111679;28;20030;-42
2021/10/15 04:06:37;;;;;;;0.80;0.57;;;;;;;4.59;82.46;93406.53;5111480;28;20019;-42
2021/10/15 04:09:03;;;;;;;0.40;0.40;;;;;;;4.73;82.98;93427.25;5111827;28;20020;-44
2021/10/15 04:11:28;;;;;;;0.70;0.70;;;;;;;4.72;83.33;93427.78;5111461;28;20122;-42
2021/10/15 04:13:53;;;;;;;0.30;0.30;;;;;;;4.68;83.38;93425.31;5111716;28;20073;-44
2021/10/15 04:16:19;;;;;;;0.52;0.47;;;;;;;4.82;83.09;93426.94;5111718;27;20031;-42
2021/10/15 04:18:44;;;;;;;0.47;0.47;;;;;;;4.87;82.29;93430.88;5111358;28;20111;-45
2021/10/15 04:21:10;;;;;;;2.25;1.38;;;;;;;4.87;82.36;93434.34;5111536;28;20055;-43
2021/10/15 04:23:35;;;;;;;7.32;3.83;;;;;;;4.83;82.24;93435.88;5094090;28;20027;-47
2021/10/15 04:26:01;;;;;;;4.28;2.60;;;;;;;4.81;82.51;93425.44;5090889;28;20027;-44
2021/10/15 04:28:26;;;;;;;1.63;1.17;;;;;;;4.77;81.07;93432.44;5090800;28;20024;-45
2021/10/15 04:30:52;;;;;;;2.22;0.73;;;;;;;4.72;82.06;93430.53;5091102;28;20020;-46
2021/10/15 04:33:17;;;;;;;0.50;0.50;;;;;;;4.70;82.21;93428.28;5090712;28;20031;-44
2021/10/15 04:35:42;;;;;;;3.00;1.63;;;;;;;4.69;82.52;93431.53;5090982;28;20046;-45
2021/10/15 04:38:08;;;;;;;4.95;1.98;;;;;;;4.70;82.66;93441.22;5089883;28;20023;-45
2021/10/15 04:40:33;;;;;;;1.02;0.98;;;;;;;4.80;82.68;93445.84;5090903;28;20524;-45
2021/10/15 04:42:59;;;;;;;0.50;0.50;;;;;;;4.76;81.69;93442.66;5090540;28;20024;-44
2021/10/15 04:45:24;;;;;;;0.45;0.45;;;;;;;4.80;81.80;93458.78;5096018;28;20024;-45
2021/10/15 04:47:50;;;;;;;2.05;0.70;;;;;;;4.78;82.15;93451.09;5110661;28;20050;-44
2021/10/15 04:50:15;;;;;;;0.88;0.68;;;;;;;4.81;82.16;93449.34;5110787;28;20015;-45
2021/10/15 04:52:41;;;;;;;0.40;0.40;;;;;;;4.83;82.07;93444.09;5109949;28;20106;-45
2021/10/15 04:55:07;;;;;;;0.75;0.55;;;;;;;4.71;82.20;93432.50;5111035;28;20417;-45
2021/10/15 04:57:32;;;;;;;0.28;0.28;;;;;;;4.68;81.80;93427.31;5111007;28;20016;-45
2021/10/15 04:59:58;;;;;;;0.50;0.50;;;;;;;4.82;82.67;93451.56;5110680;28;20031;-45
2021/10/15 05:02:23;;;;;;;0.63;0.47;;;;;;;4.81;82.59;93455.53;5110626;28;20489;-44
2021/10/15 05:04:48;;;;;;;1.50;1.10;;;;;;;4.73;83.76;93453.88;5110916;28;20031;-45
2021/10/15 05:07:14;;;;;;;42.83;23.83;;;;;;;4.81;83.88;93450.06;5110562;28;20038;-43
2021/10/15 05:09:41;;;;;;;3.08;1.90;;;;;;;4.83;83.85;93457.78;5110879;28;20012;-44
2021/10/15 05:12:13;;;;;;;1.55;0.90;;;;;;;4.94;83.94;93455.66;5110708;28;20381;-44
2021/10/15 05:14:40;;;;;;;9.93;5.57;;;;;;;5.10;83.32;93460.22;5110755;28;20028;-45
2021/10/15 05:17:05;;;;;;;18.70;9.25;;;;;;;5.14;83.18;93462.69;5109289;28;20016;-45
2021/10/15 05:19:31;;;;;;;9.13;4.97;;;;;;;5.14;81.86;93462.69;5110361;28;20035;-42
2021/10/15 05:21:57;;;;;;;9.43;5.93;;;;;;;5.12;82.06;93462.44;5107389;28;20453;-43
2021/10/15 05:24:22;;;;;;;2.55;1.95;;;;;;;5.12;80.96;93456.97;5090022;28;20109;-43
2021/10/15 05:26:48;;;;;;;1.30;1.20;;;;;;;5.20;81.28;93469.56;5090018;28;20028;-45
2021/10/15 05:29:13;;;;;;;3.88;1.75;;;;;;;5.19;81.16;93464.63;5090458;28;20043;-44
2021/10/15 05:31:39;;;;;;;2.92;2.20;;;;;;;5.33;81.57;93456.00;5089345;28;20077;-43
2021/10/15 05:34:04;;;;;;;9.88;5.25;;;;;;;5.22;82.59;93447.91;5089331;28;20020;-43
2021/10/15 05:36:30;;;;;;;16.95;6.85;;;;;;;5.25;81.75;93435.94;5088998;28;20024;-46
2021/10/15 05:38:55;;;;;;;30.08;14.55;;;;;;;5.28;81.92;93423.94;5088970;28;20115;-41
2021/10/15 05:41:21;;;;;;;29.08;13.25;;;;;;;5.31;82.81;93438.59;5089159;28;20020;-45
2021/10/15 05:43:46;;;;;;;33.50;10.70;;;;;;;5.40;82.68;93441.00;5088893;28;20484;-45
2021/10/15 05:46:12;;;;;;;8.05;4.35;;;;;;;5.51;82.04;93451.81;5100950;28;20015;-45
2021/10/15 05:48:37;;;;;;;9.63;7.10;;;;;;;5.50;82.23;93453.06;5110071;28;20055;-44
2021/10/15 05:51:03;;;;;;;30.33;15.73;;;;;;;5.61;81.39;93452.22;5113307;28;20015;-43
2021/10/15 05:53:31;;;;;;;36.95;4.40;;;;;;;5.59;80.85;93457.47;5113286;28;20173;-44
2021/10/15 05:58:50;;;;;;;3.25;2.40;;;;;;;5.43;82.70;93472.81;5113356;28;20118;-45
2021/10/15 06:01:22;;;;;;;27.00;15.15;;;;;;;5.50;80.72;93464.00;5113240;28;20016;-43
2021/10/15 06:03:59;;;;;;;9.48;2.95;;;;;;;5.62;80.14;93446.22;5113218;28;20114;-42
2021/10/15 06:14:35;;;;;;;19.88;9.35;;;;;;;5.64;82.13;93430.00;5111670;28;20034;-44
2021/10/15 06:17:07;;;;;;;4.50;3.33;;;;;;;5.80;81.29;93445.50;5112877;28;20027;-44
2021/10/15 06:19:43;;;;;;;4.55;3.08;;;;;;;5.89;81.62;93450.59;5112216;28;20027;-45
2021/10/15 06:22:09;;;;;;;6.00;5.38;;;;;;;5.80;80.37;93436.53;5107343;28;20079;-45
2021/10/15 06:24:34;;;;;;;3.58;3.03;;;;;;;5.96;80.39;93460.25;5091535;28;20060;-41
2021/10/15 06:27:00;;;;;;;17.10;12.80;;;;;;;5.89;78.80;93455.38;5091556;28;20027;-42
2021/10/15 06:29:25;;;;;;;6.05;4.85;;;;;;;5.86;79.20;93461.88;5091746;28;20024;-43
2021/10/15 06:31:50;;;;;;;5.75;4.70;;;;;;;5.81;79.91;93457.91;5091698;28;20036;-43
2021/10/15 06:34:18;;;;;;;5.07;4.32;;;;;;;5.70;80.86;93460.78;5091622;28;20028;-43
2021/10/15 06:36:45;;;;;;;9.23;3.45;;;;;;;5.77;80.63;93456.72;5091812;28;20028;-42
2021/10/15 06:39:10;;;;;;;4.28;3.88;;;;;;;5.74;80.59;93455.75;5091562;28;20024;-41
2021/10/15 06:41:36;;;;;;;2.53;2.33;;;;;;;5.68;80.03;93448.88;5091445;28;20489;-42
2021/10/15 06:44:01;;;;;;;2.00;1.65;;;;;;;5.64;79.70;93462.13;5091460;28;20038;-44
2021/10/15 06:46:27;;;;;;;3.70;2.60;;;;;;;5.49;79.65;93459.81;5102977;28;20038;-43
2021/10/15 06:48:52;;;;;;;8.13;5.43;;;;;;;5.50;80.92;93458.53;5106999;28;20613;-45
2021/10/15 06:51:18;;;;;;;7.22;6.07;;;;;;;5.62;81.77;93457.16;5109519;28;20036;-44
2021/10/15 06:53:45;;;;;;;6.65;5.85;;;;;;;5.61;81.79;93450.19;5109336;28;20540;-45
2021/10/15 06:56:10;;;;;;;3.00;2.70;;;;;;;5.59;81.76;93441.03;5109774;28;20084;-46
2021/10/15 06:58:36;;;;;;;2.67;2.47;;;;;;;5.53;82.20;93434.88;5109775;28;20028;-44
2021/10/15 07:01:02;;;;;;;3.15;2.85;;;;;;;5.67;81.70;93430.97;5108823;28;20553;-43
2021/10/15 07:03:28;;;;;;;4.57;4.13;;;;;;;5.64;81.69;93434.72;5109822;28;20035;-44
2021/10/15 07:05:54;;;;;;;9.75;8.20;;;;;;;5.57;81.82;93443.53;5109761;28;20035;-44
2021/10/15 07:08:19;;;;;;;7.43;4.75;;;;;;;5.50;81.88;93446.88;5109484;28;20050;-43
2021/10/15 07:10:44;;;;;;;10.95;6.03;;;;;;;5.50;83.11;93453.06;5109316;28;20023;-43
2021/10/15 07:13:13;;;;;;;11.18;8.18;;;;;;;5.49;82.99;93448.84;5109234;28;20023;-43
2021/10/15 07:15:39;;;;;;;4.63;4.00;;;;;;;5.50;82.23;93461.28;5109199;28;20042;-43
2021/10/15 07:18:05;;;;;;;11.23;9.13;;;;;;;5.51;82.84;93459.28;5108052;28;20035;-41
2021/10/15 07:20:30;;;;;;;21.98;11.38;;;;;;;5.73;83.66;93448.81;5109493;28;20028;-42
2021/10/15 07:22:56;;;;;;;12.30;10.80;;;;;;;5.74;83.12;93455.03;5097981;28;20038;-43
2021/10/15 07:25:22;;;;;;;7.80;6.60;;;;;;;5.75;83.14;93462.72;5087878;28;20106;-42
2021/10/15 07:27:48;;;;;;;10.85;8.93;;;;;;;5.83;83.20;93463.63;5088728;28;20031;-43
2021/10/15 07:30:13;;;;;;;13.07;11.77;;;;;;;5.87;83.67;93461.34;5089056;28;20121;-40
2021/10/15 07:32:39;;;;;;;8.77;7.93;;;;;;;5.82;82.27;93442.97;5088664;28;20168;-41
2021/10/15 07:35:05;;;;;;;6.05;5.53;;;;;;;5.90;81.37;93468.53;5088849;28;20028;-41
2021/10/15 07:37:31;;;;;;;8.45;4.90;;;;;;;5.98;81.77;93461.22;5088569;28;20036;-43
2021/10/15 07:39:56;;;;;;;3.25;2.63;;;;;;;5.81;80.67;93465.38;5088374;28;20040;-42
2021/10/15 07:42:22;;;;;;;3.72;2.97;;;;;;;5.72;80.97;93469.22;5088477;28;20031;-42
2021/10/15 07:44:48;;;;;;;7.20;4.10;;;;;;;5.69;81.83;93461.31;5088945;28;20028;-45
2021/10/15 07:47:13;;;;;;;7.05;5.15;;;;;;;5.93;82.72;93455.81;5087824;28;20550;-40
2021/10/15 07:49:39;;;;;;;4.85;3.25;;;;;;;6.08;81.63;93462.34;5089078;28;20085;-41
2021/10/15 07:52:08;;;;;;;2.72;2.25;;;;;;;6.04;82.12;93456.38;5091484;28;20080;-41
2021/10/15 07:54:34;;;;;;;2.45;2.25;;;;;;;6.16;81.60;93467.19;5108968;28;20065;-41
2021/10/15 07:57:01;;;;;;;3.63;2.78;;;;;;;6.23;81.23;93472.84;5108953;28;20039;-40
2021/10/15 07:59:27;;;;;;;3.42;2.60;;;;;;;6.21;80.57;93471.88;5108273;28;20493;-39
2021/10/15 08:01:53;;;;;;;3.33;3.00;;;;;;;6.23;80.34;93467.34;5108480;28;20032;-41
2021/10/15 08:04:19;;;;;;;9.85;6.93;;;;;;;6.13;80.92;93473.75;5108237;27;20031;-41
2021/10/15 08:06:45;;;;;;;5.53;3.85;;;;;;;6.16;81.21;93467.94;5108563;28;20035;-41
2021/10/15 08:09:11;;;;;;;12.52;6.68;;;;;;;6.21;81.00;93463.66;5108273;28;20019;-40
2021/10/15 08:11:36;;;;;;;17.48;11.20;;;;;;;6.24;81.37;93465.34;5108583;28;20478;-42
2021/10/15 08:14:02;;;;;;;15.35;9.90;;;;;;;6.25;81.60;93469.56;5108812;28;20032;-42
2021/10/15 08:16:27;;;;;;;14.05;9.05;;;;;;;6.29;81.74;93470.00;5108304;28;20035;-43
2021/10/15 08:18:53;;;;;;;8.60;5.43;;;;;;;6.29;82.29;93465.25;5107631;28;20034;-40
2021/10/15 08:21:19;;;;;;;6.35;4.38;;;;;;;6.37;82.24;93465.38;5107935;28;20084;-42
2021/10/15 08:23:45;;;;;;;3.30;2.90;;;;;;;6.33;82.15;93451.25;5090038;28;20093;-41
2021/10/15 08:26:11;;;;;;;6.55;5.20;;;;;;;6.31;82.34;93465.47;5089921;28;20497;-42
2021/10/15 08:28:37;;;;;;;6.40;5.05;;;;;;;6.43;81.99;93446.88;5107922;28;20023;-41
2021/10/15 08:31:02;;;;;;;4.43;3.92;;;;;;;6.48;81.77;93451.50;5107859;28;20028;-42
2021/10/15 08:33:28;;;;;;;1.75;1.65;;;;;;;6.52;81.29;93444.47;5107993;28;20037;-42
2021/10/15 08:35:54;;;;;;;8.27;4.18;;;;;;;6.44;81.79;93431.88;5108613;27;20039;-44
2021/10/15 08:38:19;;;;;;;10.75;8.15;;;;;;;6.54;81.75;93433.72;5108669;28;20080;-42
2021/10/15 08:40:46;;;;;;;22.10;12.85;;;;;;;6.59;82.17;93432.88;5108534;28;20442;-44
2021/10/15 08:43:11;;;;;;;9.40;7.00;;;;;;;6.60;82.19;93433.63;5087779;28;20039;-43
2021/10/15 08:45:37;;;;;;;9.10;3.15;;;;;;;6.65;81.97;93430.78;5094914;28;20416;-44
2021/10/15 08:48:03;;;;;;;3.20;2.47;;;;;;;6.51;80.77;93415.56;5105763;28;20528;-44
2021/10/15 08:50:28;;;;;;;3.70;2.92;;;;;;;6.49;81.16;93414.63;5087063;28;20027;-44
2021/10/15 08:52:55;;;;;;;1.20;1.10;;;;;;;6.59;80.88;93418.44;5087474;28;20051;-44
2021/10/15 08:55:21;;;;;;;0.98;0.70;;;;;;;6.67;80.27;93417.28;5085917;28;20526;-41
2021/10/15 08:57:54;;;;;;;2.28;1.25;;;;;;;6.69;80.56;93411.28;5086751;28;20496;-43
2021/10/15 09:00:26;;;;;;;2.92;2.30;;;;;;;6.74;80.99;93418.69;5096549;28;20057;-43
2021/10/15 09:03:18;;;;;;;7.88;7.28;;;;;;;6.82;80.99;93417.53;5103551;28;20042;-40
2021/10/15 09:06:03;;;;;;;1.50;1.23;;;;;;;6.92;80.96;93414.38;5106566;28;20176;-41
2021/10/15 09:08:53;;;;;;;2.20;1.98;;;;;;;6.97;79.78;93403.31;5106712;28;20036;-43
2021/10/15 09:11:34;;;;;;;1.73;1.60;;;;;;;6.88;79.80;93409.22;5087360;28;20036;-41
2021/10/15 09:14:22;;;;;;;1.75;1.65;;;;;;;6.92;80.45;93406.16;5087478;28;20042;-41
2021/10/15 09:17:03;;;;;;;4.20;3.80;;;;;;;7.02;80.01;93407.94;5087333;28;20047;-40
2021/10/15 09:19:41;;;;;;;2.22;2.10;;;;;;;6.97;79.67;93408.06;5086999;28;20036;-42
2021/10/15 09:22:25;;;;;;;4.30;3.90;;;;;;;6.98;80.55;93421.25;5086987;28;20089;-43
2021/10/15 09:25:05;;;;;;;10.90;7.43;;;;;;;7.04;81.31;93415.69;5090597;28;20060;-40
2021/10/15 09:27:38;;;;;;;12.73;7.95;;;;;;;7.14;80.79;93422.97;5101120;28;20051;-39
2021/10/15 09:30:03;;;;;;;20.05;9.15;;;;;;;7.18;80.35;93426.13;5111575;28;20024;-42
2021/10/15 09:32:32;;;;;;;11.68;6.40;;;;;;;7.13;79.59;93418.00;5100631;28;20024;-37
2021/10/15 09:34:58;;;;;;;10.88;6.57;;;;;;;7.15;79.76;93423.69;5096904;28;20051;-37
2021/10/15 09:37:28;;;;;;;4.50;4.10;;;;;;;7.10;79.03;93419.06;5099345;28;20493;-38
2021/10/15 09:40:23;;;;;;;1.90;1.80;;;;;;;7.01;78.55;93427.69;5110967;28;20506;-37
2021/10/15 09:43:00;;;;;;;3.97;3.00;;;;;;;7.00;79.52;93424.22;5095721;28;20040;-37
2021/10/15 09:45:39;;;;;;;2.97;2.42;;;;;;;6.98;79.86;93434.97;5106545;28;20016;-44
2021/10/15 09:48:26;;;;;;;5.80;4.65;;;;;;;6.91;79.73;93435.59;5110264;28;20043;-45
2021/10/15 09:51:11;;;;;;;4.13;2.13;;;;;;;6.88;80.69;93440.16;5111722;28;20048;-43
2021/10/15 09:53:37;;;;;;;3.55;2.58;;;;;;;6.87;80.35;93446.16;5111749;28;20114;-47
2021/10/15 09:56:03;;;;;;;2.85;1.80;;;;;;;6.79;80.17;93443.28;5111565;28;20485;-39
2021/10/15 09:58:29;;;;;;;4.07;3.00;;;;;;;6.78;80.22;93449.28;5110062;28;20046;-39
2021/10/15 10:00:55;;;;;;;4.45;2.40;;;;;;;6.60;80.29;93450.09;5110882;27;20087;-39
2021/10/15 10:03:22;;;;;;;6.55;2.63;;;;;;;6.60;80.69;93455.59;5111043;28;20023;-37
2021/10/15 10:05:49;;;;;;;4.70;2.53;;;;;;;6.50;80.19;93449.00;5111117;28;20069;-37
2021/10/15 10:08:15;;;;;;;7.13;3.65;;;;;;;6.49;80.82;93442.03;5110948;28;20102;-43
2021/10/15 10:10:41;;;;;;;2.45;1.80;;;;;;;6.43;80.74;93446.88;5102757;28;20020;-44
2021/10/15 10:13:10;;;;;;;5.10;3.92;;;;;;;6.54;81.65;93454.94;5102444;28;20038;-35
2021/10/15 10:15:38;;;;;;;1.70;1.60;;;;;;;6.59;81.93;93449.34;5109997;28;20028;-35
2021/10/15 10:18:24;;;;;;;1.77;1.38;;;;;;;6.64;82.15;93456.75;5100876;28;20578;-35
2021/10/15 10:20:55;;;;;;;12.02;8.07;;;;;;;6.68;82.61;93443.47;5102504;28;20047;-36
2021/10/15 10:23:27;;;;;;;14.77;9.13;;;;;;;6.70;82.11;93445.69;5098549;28;20076;-36
2021/10/15 10:26:16;;;;;;;6.85;3.97;;;;;;;6.67;82.07;93430.28;5110516;28;20872;-36
2021/10/15 10:28:42;;;;;;;8.13;2.40;;;;;;;6.71;82.69;93431.44;5102735;28;20032;-36
2021/10/15 10:31:20;;;;;;;2.53;2.03;;;;;;;6.69;82.64;93436.00;5088733;28;20546;-35
2021/10/15 10:33:57;;;;;;;8.15;3.92;;;;;;;6.67;81.88;93431.00;5090148;28;20032;-36
2021/10/15 10:36:24;;;;;;;2.95;2.40;;;;;;;6.62;81.08;93436.59;5093885;28;20036;-35
2021/10/15 10:38:50;;;;;;;8.88;2.33;;;;;;;6.42;81.05;93410.47;5109246;28;20050;-35
2021/10/15 10:41:18;;;;;;;2.55;1.67;;;;;;;6.53;80.89;93428.75;5109060;28;20032;-35
2021/10/15 10:43:43;;;;;;;2.00;1.70;;;;;;;6.35;80.68;93421.31;5110526;28;20031;-35
2021/10/15 10:46:09;;;;;;;3.90;2.60;;;;;;;6.36;81.58;93417.31;5098392;27;20444;-44
2021/10/15 10:48:52;;;;;;;5.40;2.88;;;;;;;6.33;81.68;93416.34;5088711;28;20098;-35
2021/10/15 10:51:19;;;;;;;5.53;3.83;;;;;;;6.32;81.46;93408.66;5107813;28;20043;-41
2021/10/15 10:54:03;;;;;;;3.33;2.58;;;;;;;6.38;81.54;93409.31;5112072;28;20389;-40
2021/10/15 10:56:48;;;;;;;7.40;1.40;;;;;;;6.32;81.16;93403.91;5111898;28;20027;-40
2021/10/15 10:59:16;;;;;;;2.30;1.75;;;;;;;6.41;80.77;93400.75;5110578;28;20160;-40
2021/10/15 11:01:54;;;;;;;1.95;1.40;;;;;;;6.48;81.52;93394.66;5110282;28;20027;-41
2021/10/15 11:04:28;;;;;;;5.65;3.78;;;;;;;6.60;81.63;93387.00;5109209;28;20580;-42
2021/10/15 11:07:06;;;;;;;1.65;1.33;;;;;;;6.72;82.23;93371.81;5110014;28;20108;-42
2021/10/15 11:09:47;;;;;;;3.70;2.22;;;;;;;6.88;82.33;93381.78;5110341;28;20027;-42
2021/10/15 11:12:33;;;;;;;6.68;2.83;;;;;;;7.01;82.64;93370.81;5109902;28;20034;-40
2021/10/15 11:15:12;;;;;;;2.53;2.30;;;;;;;7.17;81.61;93371.75;5090368;28;20246;-40
2021/10/15 11:17:40;;;;;;;;;;;;;;;7.26;81.29;93369.31;5091331;28;20714;-40
2021/10/15 11:20:14;;;;;;;1.45;1.35;;;;;;;7.30;80.46;93366.97;5104576;28;19923;-41
2021/10/15 11:22:42;;;;;;;1.90;1.17;;;;;;;7.26;80.96;93357.59;5095016;28;20061;-40
2021/10/15 11:25:11;;;;;;;2.22;1.63;;;;;;;7.16;80.02;93349.06;5091315;28;20443;-41
2021/10/15 11:27:37;;;;;;;2.03;1.02;;;;;;;6.92;80.07;93332.06;5094455;28;20107;-41
2021/10/15 11:30:06;;;;;;;3.03;1.75;;;;;;;7.09;80.32;93335.22;5100922;28;20111;-37
2021/10/15 11:32:40;;;;;;;5.85;3.30;;;;;;;7.19;80.73;93337.00;5111155;28;20504;-38
2021/10/15 11:35:10;;;;;;;5.60;3.30;;;;;;;7.24;80.00;93327.16;5111638;28;20385;-36
2021/10/15 11:37:50;;;;;;;9.85;4.63;;;;;;;7.29;80.36;93315.34;5102911;28;20060;-36
2021/10/15 11:40:25;;;;;;;8.15;4.53;;;;;;;7.34;80.71;93311.75;5109705;28;20027;-36
2021/10/15 11:42:52;;;;;;;4.93;2.70;;;;;;;7.30;80.20;93294.84;5110943;28;20024;-36
2021/10/15 11:45:20;;;;;;;7.75;4.10;;;;;;;7.51;80.21;93303.91;5106247;28;20496;-37
2021/10/15 11:48:06;;;;;;;4.03;2.55;;;;;;;7.57;80.94;93296.28;5089267;28;20105;-37
2021/10/15 11:50:37;;;;;;;9.00;3.28;;;;;;;7.41;80.63;93297.34;5090721;28;20474;-37
2021/10/15 11:53:04;;;;;;;6.15;4.38;;;;;;;7.26;80.52;93294.44;5090370;28;20020;-40
2021/10/15 11:55:35;;;;;;;7.97;4.68;;;;;;;7.43;81.58;93286.56;5089488;28;20032;-41